DLH88Y EDDF-LWSK
Flight info
| Callsign | DLH88Y |
|---|---|
| Flight time | 1h 54m |
| Altitude | 37000 |
| Route | CINDY8S/18 CINDY Z74 LAMPU DCT NOMBO Y161 MAH DCT VAVOR DCT RADIZ DCT KUSIB DCT MEDUX UM867 KOGAT |
| Aircraft | A320/M-SDE2E3FGIJ1LORWXYZ/HB1 |
Departure
| Time | 2026-05-05 10:58 |
|---|---|
| Airport | Frankfurt Main Airport (EDDF) |
Arrival
| Time | 2026-05-05 12:52 |
|---|---|
| Airport | Skopje International Airport (LWSK) |
| Time | Latitude | Longitude | Altitude | Speed | Heading |
|---|---|---|---|---|---|
| 2026-05-05 10:20 | 50.04878 | 8.59048 | 365 ft | 0 kts | 340° |
| 2026-05-05 10:37 | 50.04877 | 8.59048 | 365 ft | 2 kts | 340° |
| 2026-05-05 10:38 | 50.04854 | 8.59061 | 368 ft | 4 kts | 340° |
| 2026-05-05 10:38 | 50.04828 | 8.59076 | 370 ft | 4 kts | 340° |
| 2026-05-05 10:38 | 50.04810 | 8.59086 | 369 ft | 0 kts | 340° |
| 2026-05-05 10:43 | 50.04815 | 8.59084 | 370 ft | 4 kts | 342° |
| 2026-05-05 10:43 | 50.04823 | 8.59106 | 369 ft | 4 kts | 89° |
| 2026-05-05 10:44 | 50.04828 | 8.59192 | 371 ft | 9 kts | 73° |
| 2026-05-05 10:44 | 50.04841 | 8.59247 | 369 ft | 0 kts | 69° |
| 2026-05-05 10:45 | 50.04844 | 8.59257 | 368 ft | 5 kts | 69° |
| 2026-05-05 10:45 | 50.04866 | 8.59349 | 371 ft | 10 kts | 72° |
| 2026-05-05 10:46 | 50.04859 | 8.59447 | 372 ft | 9 kts | 118° |
| 2026-05-05 10:46 | 50.04803 | 8.59531 | 370 ft | 14 kts | 140° |
| 2026-05-05 10:46 | 50.04725 | 8.59598 | 374 ft | 11 kts | 165° |
| 2026-05-05 10:46 | 50.04676 | 8.59611 | 374 ft | 11 kts | 172° |
| 2026-05-05 10:47 | 50.04591 | 8.59620 | 375 ft | 12 kts | 178° |
| 2026-05-05 10:47 | 50.04488 | 8.59625 | 376 ft | 10 kts | 178° |
| 2026-05-05 10:47 | 50.04414 | 8.59630 | 376 ft | 13 kts | 178° |
| 2026-05-05 10:47 | 50.04308 | 8.59636 | 376 ft | 17 kts | 178° |
| 2026-05-05 10:48 | 50.04184 | 8.59622 | 375 ft | 19 kts | 194° |
| 2026-05-05 10:48 | 50.04095 | 8.59574 | 375 ft | 21 kts | 200° |
| 2026-05-05 10:48 | 50.03961 | 8.59462 | 372 ft | 23 kts | 219° |
| 2026-05-05 10:48 | 50.03860 | 8.59243 | 369 ft | 24 kts | 248° |
| 2026-05-05 10:49 | 50.03805 | 8.59009 | 368 ft | 21 kts | 250° |
| 2026-05-05 10:49 | 50.03749 | 8.58771 | 366 ft | 24 kts | 250° |
| 2026-05-05 10:49 | 50.03696 | 8.58552 | 359 ft | 20 kts | 250° |
| 2026-05-05 10:49 | 50.03644 | 8.58333 | 363 ft | 22 kts | 249° |
| 2026-05-05 10:50 | 50.03588 | 8.58098 | 361 ft | 24 kts | 250° |
| 2026-05-05 10:50 | 50.03529 | 8.57850 | 361 ft | 26 kts | 249° |
| 2026-05-05 10:50 | 50.03463 | 8.57573 | 360 ft | 28 kts | 249° |
| 2026-05-05 10:50 | 50.03400 | 8.57307 | 359 ft | 25 kts | 250° |
| 2026-05-05 10:51 | 50.03340 | 8.57057 | 357 ft | 25 kts | 249° |
| 2026-05-05 10:51 | 50.03281 | 8.56808 | 358 ft | 24 kts | 250° |
| 2026-05-05 10:51 | 50.03220 | 8.56554 | 353 ft | 25 kts | 250° |
| 2026-05-05 10:51 | 50.03163 | 8.56312 | 348 ft | 23 kts | 250° |
| 2026-05-05 10:52 | 50.03106 | 8.56075 | 347 ft | 25 kts | 250° |
| 2026-05-05 10:52 | 50.03045 | 8.55816 | 354 ft | 26 kts | 250° |
| 2026-05-05 10:52 | 50.02991 | 8.55596 | 346 ft | 22 kts | 249° |
| 2026-05-05 10:52 | 50.02935 | 8.55363 | 349 ft | 24 kts | 249° |
| 2026-05-05 10:53 | 50.02876 | 8.55116 | 346 ft | 25 kts | 250° |
| 2026-05-05 10:53 | 50.02816 | 8.54863 | 348 ft | 25 kts | 250° |
| 2026-05-05 10:53 | 50.02755 | 8.54605 | 337 ft | 26 kts | 250° |
| 2026-05-05 10:53 | 50.02690 | 8.54335 | 339 ft | 27 kts | 252° |
| 2026-05-05 10:54 | 50.02632 | 8.54050 | 335 ft | 27 kts | 249° |
| 2026-05-05 10:54 | 50.02564 | 8.53769 | 332 ft | 28 kts | 250° |
| 2026-05-05 10:54 | 50.02496 | 8.53483 | 332 ft | 28 kts | 249° |
| 2026-05-05 10:54 | 50.02434 | 8.53222 | 333 ft | 26 kts | 249° |
| 2026-05-05 10:55 | 50.02380 | 8.52998 | 332 ft | 22 kts | 250° |
| 2026-05-05 10:55 | 50.02334 | 8.52812 | 334 ft | 13 kts | 249° |
| 2026-05-05 10:55 | 50.02323 | 8.52763 | 331 ft | 0 kts | 249° |
| 2026-05-05 10:56 | 50.02322 | 8.52762 | 331 ft | 2 kts | 249° |
| 2026-05-05 10:56 | 50.02306 | 8.52693 | 334 ft | 12 kts | 251° |
| 2026-05-05 10:56 | 50.02283 | 8.52607 | 332 ft | 7 kts | 195° |
| 2026-05-05 10:57 | 50.02237 | 8.52605 | 335 ft | 7 kts | 179° |
| 2026-05-05 10:57 | 50.02065 | 8.52607 | 331 ft | 58 kts | 180° |
| 2026-05-05 10:57 | 50.01428 | 8.52614 | 332 ft | 122 kts | 179° |
| 2026-05-05 10:57 | 50.00396 | 8.52624 | 352 ft | 171 kts | 179° |
| 2026-05-05 10:58 | 49.99213 | 8.52636 | 1016 ft | 166 kts | 179° |
| 2026-05-05 10:58 | 49.98062 | 8.52663 | 1764 ft | 166 kts | 175° |
| 2026-05-05 10:58 | 49.96899 | 8.53222 | 2124 ft | 188 kts | 149° |
| 2026-05-05 10:58 | 49.95882 | 8.54667 | 2418 ft | 211 kts | 124° |
| 2026-05-05 10:59 | 49.95115 | 8.56738 | 2824 ft | 230 kts | 120° |
| 2026-05-05 10:59 | 49.94381 | 8.58951 | 3665 ft | 232 kts | 112° |
| 2026-05-05 10:59 | 49.93996 | 8.61437 | 4386 ft | 247 kts | 97° |
| 2026-05-05 10:59 | 49.93886 | 8.64225 | 4866 ft | 268 kts | 94° |
| 2026-05-05 11:00 | 49.93625 | 8.67117 | 5713 ft | 273 kts | 108° |
| 2026-05-05 11:00 | 49.92833 | 8.69790 | 6615 ft | 274 kts | 126° |
| 2026-05-05 11:00 | 49.91575 | 8.71951 | 7477 ft | 275 kts | 142° |
| 2026-05-05 11:00 | 49.90028 | 8.73705 | 8380 ft | 277 kts | 146° |
| 2026-05-05 11:01 | 49.88562 | 8.75668 | 9271 ft | 281 kts | 133° |
| 2026-05-05 11:01 | 49.87437 | 8.78179 | 10098 ft | 288 kts | 121° |
| 2026-05-05 11:01 | 49.86407 | 8.80981 | 10425 ft | 311 kts | 125° |
| 2026-05-05 11:01 | 49.84963 | 8.83576 | 10894 ft | 324 kts | 135° |
| 2026-05-05 11:02 | 49.83394 | 8.86117 | 11639 ft | 329 kts | 135° |
| 2026-05-05 11:02 | 49.81801 | 8.88698 | 12420 ft | 333 kts | 135° |
| 2026-05-05 11:02 | 49.80189 | 8.91310 | 13192 ft | 338 kts | 135° |
| 2026-05-05 11:02 | 49.78557 | 8.93957 | 13907 ft | 342 kts | 135° |
| 2026-05-05 11:03 | 49.76903 | 8.96629 | 14595 ft | 346 kts | 135° |
| 2026-05-05 11:03 | 49.75240 | 8.99343 | 15286 ft | 349 kts | 135° |
| 2026-05-05 11:03 | 49.73563 | 9.02071 | 15986 ft | 352 kts | 135° |
| 2026-05-05 11:03 | 49.71867 | 9.04821 | 16649 ft | 355 kts | 136° |
| 2026-05-05 11:04 | 49.70155 | 9.07591 | 17361 ft | 358 kts | 136° |
| 2026-05-05 11:04 | 49.68429 | 9.10384 | 18068 ft | 360 kts | 136° |
| 2026-05-05 11:04 | 49.66697 | 9.13194 | 18670 ft | 363 kts | 136° |
| 2026-05-05 11:04 | 49.64944 | 9.16023 | 19249 ft | 366 kts | 136° |
| 2026-05-05 11:05 | 49.63174 | 9.18869 | 19802 ft | 370 kts | 136° |
| 2026-05-05 11:05 | 49.61389 | 9.21747 | 20350 ft | 373 kts | 136° |
| 2026-05-05 11:05 | 49.59586 | 9.24651 | 20890 ft | 377 kts | 136° |
| 2026-05-05 11:05 | 49.57764 | 9.27578 | 21439 ft | 380 kts | 136° |
| 2026-05-05 11:06 | 49.55927 | 9.30522 | 21979 ft | 383 kts | 136° |
| 2026-05-05 11:06 | 49.54073 | 9.33489 | 22511 ft | 386 kts | 136° |
| 2026-05-05 11:06 | 49.52203 | 9.36481 | 23034 ft | 390 kts | 136° |
| 2026-05-05 11:06 | 49.50312 | 9.39502 | 23543 ft | 393 kts | 136° |
| 2026-05-05 11:07 | 49.48409 | 9.42545 | 23989 ft | 396 kts | 136° |
| 2026-05-05 11:07 | 49.46494 | 9.45601 | 24446 ft | 398 kts | 137° |
| 2026-05-05 11:07 | 49.44569 | 9.48667 | 24915 ft | 400 kts | 137° |
| 2026-05-05 11:07 | 49.42636 | 9.51761 | 25360 ft | 402 kts | 137° |
| 2026-05-05 11:08 | 49.40688 | 9.54859 | 25804 ft | 404 kts | 137° |
| 2026-05-05 11:08 | 49.38754 | 9.57924 | 26236 ft | 406 kts | 137° |
| 2026-05-05 11:08 | 49.36782 | 9.61043 | 26666 ft | 408 kts | 138° |
| 2026-05-05 11:08 | 49.34795 | 9.64183 | 27090 ft | 411 kts | 138° |
| 2026-05-05 11:09 | 49.32805 | 9.67332 | 27526 ft | 412 kts | 138° |
| 2026-05-05 11:09 | 49.30801 | 9.70495 | 27976 ft | 414 kts | 138° |
| 2026-05-05 11:09 | 49.28793 | 9.73671 | 28414 ft | 416 kts | 138° |
| 2026-05-05 11:09 | 49.26777 | 9.76861 | 28829 ft | 418 kts | 138° |
| 2026-05-05 11:10 | 49.24748 | 9.80063 | 29223 ft | 420 kts | 138° |
| 2026-05-05 11:10 | 49.22702 | 9.83277 | 29603 ft | 423 kts | 139° |
| 2026-05-05 11:10 | 49.20644 | 9.86501 | 29976 ft | 425 kts | 139° |
| 2026-05-05 11:10 | 49.18571 | 9.89744 | 30287 ft | 427 kts | 139° |
| 2026-05-05 11:11 | 49.16489 | 9.92993 | 30582 ft | 429 kts | 139° |
| 2026-05-05 11:11 | 49.14397 | 9.96267 | 30862 ft | 431 kts | 139° |
| 2026-05-05 11:11 | 49.12299 | 9.99548 | 31147 ft | 433 kts | 139° |
| 2026-05-05 11:11 | 49.10193 | 10.02837 | 31555 ft | 432 kts | 139° |
| 2026-05-05 11:12 | 49.08092 | 10.06101 | 31966 ft | 431 kts | 139° |
| 2026-05-05 11:12 | 49.05995 | 10.09346 | 32444 ft | 427 kts | 141° |
| 2026-05-05 11:12 | 49.03837 | 10.12430 | 32903 ft | 424 kts | 142° |
| 2026-05-05 11:12 | 49.01673 | 10.15468 | 33326 ft | 423 kts | 142° |
| 2026-05-05 11:13 | 48.99514 | 10.18508 | 33714 ft | 422 kts | 142° |
| 2026-05-05 11:13 | 48.97361 | 10.21540 | 34043 ft | 422 kts | 142° |
| 2026-05-05 11:13 | 48.95205 | 10.24566 | 34371 ft | 422 kts | 142° |
| 2026-05-05 11:13 | 48.93049 | 10.27602 | 34678 ft | 422 kts | 142° |
| 2026-05-05 11:14 | 48.90905 | 10.30651 | 34974 ft | 422 kts | 142° |
| 2026-05-05 11:14 | 48.88754 | 10.33693 | 35266 ft | 423 kts | 142° |
| 2026-05-05 11:14 | 48.86599 | 10.36729 | 35548 ft | 423 kts | 142° |
| 2026-05-05 11:14 | 48.84438 | 10.39760 | 35830 ft | 423 kts | 142° |
| 2026-05-05 11:15 | 48.82299 | 10.42824 | 36098 ft | 424 kts | 138° |
| 2026-05-05 11:15 | 48.80275 | 10.46098 | 36363 ft | 425 kts | 137° |
| 2026-05-05 11:15 | 48.78253 | 10.49365 | 36617 ft | 425 kts | 137° |
| 2026-05-05 11:15 | 48.76227 | 10.52624 | 36804 ft | 424 kts | 137° |
| 2026-05-05 11:16 | 48.74194 | 10.55872 | 36857 ft | 426 kts | 137° |
| 2026-05-05 11:16 | 48.70115 | 10.62379 | 36849 ft | 426 kts | 137° |
| 2026-05-05 11:17 | 48.66026 | 10.68883 | 36848 ft | 426 kts | 137° |
| 2026-05-05 11:17 | 48.61930 | 10.75369 | 36847 ft | 426 kts | 138° |
| 2026-05-05 11:18 | 48.57839 | 10.81853 | 36840 ft | 426 kts | 137° |
| 2026-05-05 11:18 | 48.53777 | 10.88381 | 36820 ft | 427 kts | 137° |
| 2026-05-05 11:19 | 48.49731 | 10.94856 | 36820 ft | 427 kts | 137° |
| 2026-05-05 11:19 | 48.45604 | 11.01304 | 36823 ft | 427 kts | 138° |
| 2026-05-05 11:20 | 48.41471 | 11.07741 | 36824 ft | 428 kts | 138° |
| 2026-05-05 11:20 | 48.37338 | 11.14183 | 36826 ft | 428 kts | 138° |
| 2026-05-05 11:21 | 48.33190 | 11.20605 | 36827 ft | 428 kts | 138° |
| 2026-05-05 11:21 | 48.29042 | 11.26999 | 36809 ft | 428 kts | 138° |
| 2026-05-05 11:22 | 48.25263 | 11.33951 | 36812 ft | 436 kts | 125° |
| 2026-05-05 11:22 | 48.22226 | 11.41850 | 36817 ft | 437 kts | 124° |
| 2026-05-05 11:23 | 48.19182 | 11.49740 | 36822 ft | 437 kts | 124° |
| 2026-05-05 11:23 | 48.16123 | 11.57625 | 36823 ft | 438 kts | 124° |
| 2026-05-05 11:24 | 48.13058 | 11.65490 | 36806 ft | 438 kts | 124° |
| 2026-05-05 11:24 | 48.09981 | 11.73368 | 36800 ft | 438 kts | 124° |
| 2026-05-05 11:25 | 48.06912 | 11.81243 | 36801 ft | 439 kts | 124° |
| 2026-05-05 11:25 | 48.03823 | 11.89108 | 36804 ft | 439 kts | 124° |
| 2026-05-05 11:26 | 48.00730 | 11.96967 | 36786 ft | 439 kts | 124° |
| 2026-05-05 11:26 | 47.97631 | 12.04824 | 36790 ft | 439 kts | 124° |
| 2026-05-05 11:27 | 47.94502 | 12.12651 | 36789 ft | 438 kts | 128° |
| 2026-05-05 11:27 | 47.90443 | 12.19255 | 36791 ft | 430 kts | 144° |
| 2026-05-05 11:28 | 47.85875 | 12.24922 | 36793 ft | 430 kts | 144° |
| 2026-05-05 11:28 | 47.81289 | 12.30650 | 36795 ft | 431 kts | 144° |
| 2026-05-05 11:29 | 47.76698 | 12.36379 | 36795 ft | 431 kts | 144° |
| 2026-05-05 11:29 | 47.72114 | 12.42099 | 36806 ft | 430 kts | 144° |
| 2026-05-05 11:30 | 47.67525 | 12.47797 | 36811 ft | 430 kts | 144° |
| 2026-05-05 11:30 | 47.62959 | 12.53509 | 36813 ft | 431 kts | 140° |
| 2026-05-05 11:31 | 47.58932 | 12.60162 | 36814 ft | 434 kts | 135° |
| 2026-05-05 11:31 | 47.54970 | 12.66904 | 36797 ft | 433 kts | 135° |
| 2026-05-05 11:32 | 47.51001 | 12.73643 | 36803 ft | 435 kts | 135° |
| 2026-05-05 11:32 | 47.47032 | 12.80370 | 36816 ft | 435 kts | 135° |
| 2026-05-05 11:33 | 47.43049 | 12.87112 | 36824 ft | 436 kts | 135° |
| 2026-05-05 11:33 | 47.39056 | 12.93847 | 36841 ft | 436 kts | 135° |
| 2026-05-05 11:34 | 47.35053 | 13.00561 | 36836 ft | 436 kts | 135° |
| 2026-05-05 11:34 | 47.31046 | 13.07275 | 36841 ft | 436 kts | 135° |
| 2026-05-05 11:35 | 47.27039 | 13.13972 | 36861 ft | 436 kts | 135° |
| 2026-05-05 11:35 | 47.23709 | 13.19551 | 36868 ft | 436 kts | 135° |
| 2026-05-05 11:36 | 47.19034 | 13.27322 | 36893 ft | 437 kts | 135° |
| 2026-05-05 11:36 | 47.15009 | 13.33999 | 36882 ft | 437 kts | 135° |
| 2026-05-05 11:37 | 47.10982 | 13.40679 | 36898 ft | 437 kts | 135° |
| 2026-05-05 11:37 | 47.07599 | 13.46263 | 36927 ft | 437 kts | 135° |
| 2026-05-05 11:38 | 47.03558 | 13.52920 | 36927 ft | 437 kts | 135° |
| 2026-05-05 11:38 | 46.99515 | 13.59572 | 36925 ft | 437 kts | 135° |
| 2026-05-05 11:39 | 46.95498 | 13.66174 | 36926 ft | 437 kts | 135° |
| 2026-05-05 11:39 | 46.91452 | 13.72801 | 36928 ft | 437 kts | 135° |
| 2026-05-05 11:40 | 46.87393 | 13.79417 | 36945 ft | 437 kts | 135° |
| 2026-05-05 11:40 | 46.83337 | 13.86036 | 36946 ft | 437 kts | 135° |
| 2026-05-05 11:41 | 46.79277 | 13.92640 | 36947 ft | 437 kts | 135° |
| 2026-05-05 11:41 | 46.75209 | 13.99234 | 36939 ft | 437 kts | 135° |
| 2026-05-05 11:42 | 46.71127 | 14.05816 | 36941 ft | 438 kts | 135° |
| 2026-05-05 11:42 | 46.67036 | 14.12404 | 36949 ft | 439 kts | 135° |
| 2026-05-05 11:43 | 46.62950 | 14.19001 | 36954 ft | 439 kts | 135° |
| 2026-05-05 11:43 | 46.58840 | 14.25578 | 36956 ft | 439 kts | 135° |
| 2026-05-05 11:44 | 46.54728 | 14.32146 | 36943 ft | 440 kts | 136° |
| 2026-05-05 11:44 | 46.50615 | 14.38724 | 36954 ft | 440 kts | 136° |
| 2026-05-05 11:45 | 46.46486 | 14.45308 | 36957 ft | 441 kts | 135° |
| 2026-05-05 11:45 | 46.42373 | 14.51842 | 36971 ft | 442 kts | 135° |
| 2026-05-05 11:46 | 46.38234 | 14.58413 | 37004 ft | 441 kts | 136° |
| 2026-05-05 11:46 | 46.34088 | 14.64973 | 36994 ft | 442 kts | 137° |
| 2026-05-05 11:47 | 46.29923 | 14.71535 | 36997 ft | 443 kts | 137° |
| 2026-05-05 11:47 | 46.25761 | 14.78092 | 37001 ft | 443 kts | 136° |
| 2026-05-05 11:48 | 46.19502 | 14.87926 | 36994 ft | 443 kts | 136° |
| 2026-05-05 11:48 | 46.15312 | 14.94461 | 36998 ft | 443 kts | 136° |
| 2026-05-05 11:49 | 46.11136 | 15.00985 | 37004 ft | 443 kts | 136° |
| 2026-05-05 11:49 | 46.06961 | 15.07507 | 37006 ft | 443 kts | 136° |
| 2026-05-05 11:50 | 46.02772 | 15.14000 | 37011 ft | 442 kts | 136° |
| 2026-05-05 11:50 | 45.98582 | 15.20477 | 37001 ft | 442 kts | 136° |
| 2026-05-05 11:51 | 45.94392 | 15.26964 | 37007 ft | 443 kts | 136° |
| 2026-05-05 11:51 | 45.90194 | 15.33451 | 36997 ft | 443 kts | 136° |
| 2026-05-05 11:52 | 45.85979 | 15.39918 | 37004 ft | 444 kts | 136° |
| 2026-05-05 11:52 | 45.81759 | 15.46398 | 37009 ft | 444 kts | 136° |
| 2026-05-05 11:53 | 45.77532 | 15.52861 | 37011 ft | 444 kts | 136° |
| 2026-05-05 11:53 | 45.73313 | 15.59327 | 37011 ft | 445 kts | 136° |
| 2026-05-05 11:54 | 45.69081 | 15.65787 | 37012 ft | 445 kts | 136° |
| 2026-05-05 11:54 | 45.64846 | 15.72235 | 37014 ft | 445 kts | 136° |
| 2026-05-05 11:55 | 45.60592 | 15.78645 | 37016 ft | 445 kts | 136° |
| 2026-05-05 11:55 | 45.56350 | 15.85075 | 37020 ft | 445 kts | 136° |
| 2026-05-05 11:56 | 45.52100 | 15.91484 | 37019 ft | 445 kts | 136° |
| 2026-05-05 11:56 | 45.47853 | 15.97891 | 37013 ft | 444 kts | 136° |
| 2026-05-05 11:57 | 45.43606 | 16.04279 | 37012 ft | 444 kts | 136° |
| 2026-05-05 11:57 | 45.39348 | 16.10654 | 37008 ft | 444 kts | 136° |
| 2026-05-05 11:58 | 45.35114 | 16.16979 | 37000 ft | 445 kts | 136° |
| 2026-05-05 11:58 | 45.30856 | 16.23350 | 36996 ft | 445 kts | 136° |
| 2026-05-05 11:59 | 45.26583 | 16.29709 | 36995 ft | 445 kts | 136° |
| 2026-05-05 11:59 | 45.22307 | 16.36064 | 36998 ft | 445 kts | 136° |
| 2026-05-05 12:00 | 45.18017 | 16.42391 | 36993 ft | 446 kts | 136° |
| 2026-05-05 12:00 | 45.13739 | 16.48763 | 36983 ft | 447 kts | 135° |
| 2026-05-05 12:01 | 45.09596 | 16.55352 | 36991 ft | 448 kts | 134° |
| 2026-05-05 12:01 | 45.05427 | 16.61915 | 36981 ft | 449 kts | 134° |
| 2026-05-05 12:02 | 45.01243 | 16.68468 | 36980 ft | 449 kts | 135° |
| 2026-05-05 12:02 | 44.97050 | 16.75019 | 36979 ft | 450 kts | 135° |
| 2026-05-05 12:03 | 44.92838 | 16.81585 | 36982 ft | 451 kts | 135° |
| 2026-05-05 12:03 | 44.88624 | 16.88143 | 36978 ft | 451 kts | 135° |
| 2026-05-05 12:04 | 44.84399 | 16.94691 | 36985 ft | 451 kts | 135° |
| 2026-05-05 12:04 | 44.80173 | 17.01234 | 36985 ft | 451 kts | 135° |
| 2026-05-05 12:05 | 44.75947 | 17.07783 | 36984 ft | 452 kts | 135° |
| 2026-05-05 12:05 | 44.71711 | 17.14311 | 36983 ft | 452 kts | 135° |
| 2026-05-05 12:06 | 44.67464 | 17.20837 | 36992 ft | 453 kts | 135° |
| 2026-05-05 12:06 | 44.63240 | 17.27315 | 36979 ft | 453 kts | 135° |
| 2026-05-05 12:07 | 44.58975 | 17.33835 | 36997 ft | 453 kts | 135° |
| 2026-05-05 12:07 | 44.54708 | 17.40357 | 36997 ft | 454 kts | 135° |
| 2026-05-05 12:08 | 44.50436 | 17.46868 | 36997 ft | 454 kts | 135° |
| 2026-05-05 12:08 | 44.46159 | 17.53372 | 37004 ft | 454 kts | 135° |
| 2026-05-05 12:09 | 44.41866 | 17.59874 | 37005 ft | 455 kts | 135° |
| 2026-05-05 12:09 | 44.37566 | 17.66382 | 37005 ft | 456 kts | 136° |
| 2026-05-05 12:10 | 44.33256 | 17.72882 | 37008 ft | 456 kts | 135° |
| 2026-05-05 12:10 | 44.28948 | 17.79379 | 37015 ft | 456 kts | 135° |
| 2026-05-05 12:11 | 44.24619 | 17.85860 | 37002 ft | 457 kts | 135° |
| 2026-05-05 12:11 | 44.20295 | 17.92356 | 37004 ft | 458 kts | 135° |
| 2026-05-05 12:12 | 44.15945 | 17.98839 | 37010 ft | 458 kts | 135° |
| 2026-05-05 12:12 | 44.11603 | 18.05332 | 37003 ft | 458 kts | 136° |
| 2026-05-05 12:13 | 44.07240 | 18.11808 | 37014 ft | 459 kts | 135° |
| 2026-05-05 12:13 | 44.02879 | 18.18304 | 37014 ft | 460 kts | 135° |
| 2026-05-05 12:14 | 43.98532 | 18.24745 | 37013 ft | 460 kts | 135° |
| 2026-05-05 12:14 | 43.94148 | 18.31221 | 37017 ft | 460 kts | 135° |
| 2026-05-05 12:15 | 43.89735 | 18.37734 | 37016 ft | 460 kts | 135° |
| 2026-05-05 12:15 | 43.85378 | 18.44163 | 37006 ft | 461 kts | 136° |
| 2026-05-05 12:16 | 43.80977 | 18.50612 | 37017 ft | 461 kts | 136° |
| 2026-05-05 12:16 | 43.76572 | 18.57059 | 37023 ft | 461 kts | 136° |
| 2026-05-05 12:17 | 43.72135 | 18.63536 | 37028 ft | 461 kts | 136° |
| 2026-05-05 12:17 | 43.67709 | 18.69968 | 37030 ft | 462 kts | 136° |
| 2026-05-05 12:18 | 43.63287 | 18.76417 | 37037 ft | 462 kts | 136° |
| 2026-05-05 12:18 | 43.58850 | 18.82851 | 37025 ft | 463 kts | 136° |
| 2026-05-05 12:19 | 43.54405 | 18.89275 | 37038 ft | 463 kts | 136° |
| 2026-05-05 12:19 | 43.49985 | 18.95667 | 37031 ft | 464 kts | 136° |
| 2026-05-05 12:20 | 43.45531 | 19.02103 | 37037 ft | 464 kts | 136° |
| 2026-05-05 12:20 | 43.41058 | 19.08521 | 37041 ft | 465 kts | 136° |
| 2026-05-05 12:21 | 43.36588 | 19.14939 | 37050 ft | 465 kts | 136° |
| 2026-05-05 12:21 | 43.32101 | 19.21364 | 37037 ft | 466 kts | 136° |
| 2026-05-05 12:22 | 43.27603 | 19.27788 | 37037 ft | 467 kts | 136° |
| 2026-05-05 12:22 | 43.23087 | 19.34218 | 37041 ft | 468 kts | 136° |
| 2026-05-05 12:23 | 43.18566 | 19.40639 | 37038 ft | 468 kts | 136° |
| 2026-05-05 12:23 | 43.14049 | 19.47057 | 37055 ft | 468 kts | 136° |
| 2026-05-05 12:24 | 43.10279 | 19.52383 | 37054 ft | 469 kts | 136° |
| 2026-05-05 12:24 | 43.05738 | 19.58789 | 36978 ft | 470 kts | 136° |
| 2026-05-05 12:25 | 43.03474 | 19.62006 | 36712 ft | 469 kts | 136° |
| 2026-05-05 12:25 | 43.01203 | 19.65205 | 36445 ft | 468 kts | 136° |
| 2026-05-05 12:25 | 42.98942 | 19.68375 | 36010 ft | 465 kts | 136° |
| 2026-05-05 12:25 | 42.96683 | 19.71533 | 35489 ft | 463 kts | 136° |
| 2026-05-05 12:26 | 42.94448 | 19.74683 | 35008 ft | 461 kts | 136° |
| 2026-05-05 12:26 | 42.92222 | 19.77815 | 34510 ft | 459 kts | 136° |
| 2026-05-05 12:26 | 42.89999 | 19.80932 | 34006 ft | 457 kts | 135° |
| 2026-05-05 12:26 | 42.87786 | 19.84027 | 33468 ft | 454 kts | 135° |
| 2026-05-05 12:27 | 42.85590 | 19.87096 | 32994 ft | 451 kts | 136° |
| 2026-05-05 12:27 | 42.83405 | 19.90138 | 32500 ft | 448 kts | 135° |
| 2026-05-05 12:27 | 42.81236 | 19.93157 | 32021 ft | 445 kts | 136° |
| 2026-05-05 12:27 | 42.79077 | 19.96155 | 31537 ft | 442 kts | 136° |
| 2026-05-05 12:28 | 42.76935 | 19.99144 | 31059 ft | 439 kts | 135° |
| 2026-05-05 12:28 | 42.74820 | 20.02124 | 30596 ft | 437 kts | 133° |
| 2026-05-05 12:28 | 42.72869 | 20.05270 | 30137 ft | 434 kts | 130° |
| 2026-05-05 12:28 | 42.70971 | 20.08437 | 29618 ft | 430 kts | 130° |
| 2026-05-05 12:29 | 42.69081 | 20.11565 | 29174 ft | 426 kts | 130° |
| 2026-05-05 12:29 | 42.67209 | 20.14662 | 28729 ft | 422 kts | 130° |
| 2026-05-05 12:29 | 42.65352 | 20.17726 | 28283 ft | 418 kts | 130° |
| 2026-05-05 12:29 | 42.63510 | 20.20763 | 27824 ft | 414 kts | 130° |
| 2026-05-05 12:30 | 42.61686 | 20.23767 | 27365 ft | 411 kts | 129° |
| 2026-05-05 12:30 | 42.59878 | 20.26742 | 26918 ft | 406 kts | 130° |
| 2026-05-05 12:30 | 42.58079 | 20.29682 | 26464 ft | 403 kts | 130° |
| 2026-05-05 12:30 | 42.56296 | 20.32600 | 26009 ft | 400 kts | 129° |
| 2026-05-05 12:31 | 42.54532 | 20.35504 | 25535 ft | 398 kts | 129° |
| 2026-05-05 12:31 | 42.52772 | 20.38387 | 25074 ft | 396 kts | 129° |
| 2026-05-05 12:31 | 42.51013 | 20.41249 | 24597 ft | 395 kts | 129° |
| 2026-05-05 12:31 | 42.49261 | 20.44102 | 24121 ft | 393 kts | 129° |
| 2026-05-05 12:32 | 42.47515 | 20.46948 | 23643 ft | 391 kts | 129° |
| 2026-05-05 12:32 | 42.45781 | 20.49785 | 23113 ft | 390 kts | 129° |
| 2026-05-05 12:32 | 42.44060 | 20.52598 | 22680 ft | 386 kts | 129° |
| 2026-05-05 12:32 | 42.42351 | 20.55380 | 22209 ft | 383 kts | 129° |
| 2026-05-05 12:33 | 42.40652 | 20.58138 | 21763 ft | 380 kts | 129° |
| 2026-05-05 12:33 | 42.38963 | 20.60882 | 21317 ft | 378 kts | 129° |
| 2026-05-05 12:33 | 42.37292 | 20.63610 | 20874 ft | 376 kts | 129° |
| 2026-05-05 12:33 | 42.35626 | 20.66317 | 20433 ft | 374 kts | 129° |
| 2026-05-05 12:34 | 42.33960 | 20.69007 | 19999 ft | 372 kts | 129° |
| 2026-05-05 12:34 | 42.32326 | 20.71645 | 19577 ft | 370 kts | 129° |
| 2026-05-05 12:34 | 42.30679 | 20.74308 | 19148 ft | 369 kts | 129° |
| 2026-05-05 12:34 | 42.29040 | 20.76966 | 18716 ft | 367 kts | 129° |
| 2026-05-05 12:35 | 42.27414 | 20.79590 | 18289 ft | 360 kts | 129° |
| 2026-05-05 12:35 | 42.25829 | 20.82150 | 17850 ft | 351 kts | 129° |
| 2026-05-05 12:35 | 42.24283 | 20.84642 | 17461 ft | 341 kts | 129° |
| 2026-05-05 12:35 | 42.22775 | 20.87059 | 17081 ft | 333 kts | 129° |
| 2026-05-05 12:36 | 42.21297 | 20.89432 | 16721 ft | 329 kts | 129° |
| 2026-05-05 12:36 | 42.19825 | 20.91792 | 16347 ft | 329 kts | 129° |
| 2026-05-05 12:36 | 42.18358 | 20.94151 | 15985 ft | 328 kts | 129° |
| 2026-05-05 12:36 | 42.16892 | 20.96508 | 15636 ft | 328 kts | 129° |
| 2026-05-05 12:37 | 42.15426 | 20.98861 | 15271 ft | 328 kts | 129° |
| 2026-05-05 12:37 | 42.13961 | 21.01213 | 14896 ft | 328 kts | 129° |
| 2026-05-05 12:37 | 42.12494 | 21.03562 | 14533 ft | 328 kts | 129° |
| 2026-05-05 12:37 | 42.11166 | 21.06049 | 14168 ft | 326 kts | 118° |
| 2026-05-05 12:38 | 42.10224 | 21.08813 | 13798 ft | 325 kts | 111° |
| 2026-05-05 12:38 | 42.09372 | 21.11624 | 13396 ft | 324 kts | 111° |
| 2026-05-05 12:38 | 42.08524 | 21.14425 | 13027 ft | 322 kts | 111° |
| 2026-05-05 12:38 | 42.07678 | 21.17203 | 12649 ft | 320 kts | 111° |
| 2026-05-05 12:39 | 42.06834 | 21.19967 | 12277 ft | 319 kts | 111° |
| 2026-05-05 12:39 | 42.05994 | 21.22721 | 11895 ft | 317 kts | 111° |
| 2026-05-05 12:39 | 42.05159 | 21.25461 | 11522 ft | 316 kts | 112° |
| 2026-05-05 12:39 | 42.04316 | 21.28183 | 11133 ft | 315 kts | 112° |
| 2026-05-05 12:40 | 42.03476 | 21.30893 | 10755 ft | 313 kts | 112° |
| 2026-05-05 12:40 | 42.02641 | 21.33591 | 10365 ft | 311 kts | 112° |
| 2026-05-05 12:40 | 42.01815 | 21.36271 | 9986 ft | 310 kts | 113° |
| 2026-05-05 12:40 | 42.01001 | 21.38910 | 9756 ft | 301 kts | 113° |
| 2026-05-05 12:41 | 42.00201 | 21.41492 | 9399 ft | 298 kts | 113° |
| 2026-05-05 12:41 | 41.99407 | 21.44057 | 9018 ft | 296 kts | 113° |
| 2026-05-05 12:41 | 41.98623 | 21.46603 | 8624 ft | 294 kts | 112° |
| 2026-05-05 12:41 | 41.97842 | 21.49126 | 8202 ft | 292 kts | 113° |
| 2026-05-05 12:42 | 41.97058 | 21.51641 | 7785 ft | 291 kts | 113° |
| 2026-05-05 12:42 | 41.96279 | 21.54143 | 7372 ft | 290 kts | 113° |
| 2026-05-05 12:42 | 41.95503 | 21.56627 | 6969 ft | 287 kts | 113° |
| 2026-05-05 12:42 | 41.94731 | 21.59070 | 6667 ft | 282 kts | 113° |
| 2026-05-05 12:43 | 41.93966 | 21.61472 | 6342 ft | 277 kts | 113° |
| 2026-05-05 12:43 | 41.93137 | 21.63746 | 6206 ft | 264 kts | 128° |
| 2026-05-05 12:43 | 41.91821 | 21.65318 | 6197 ft | 248 kts | 148° |
| 2026-05-05 12:43 | 41.90382 | 21.66473 | 6175 ft | 239 kts | 150° |
| 2026-05-05 12:44 | 41.88967 | 21.67578 | 5978 ft | 233 kts | 150° |
| 2026-05-05 12:44 | 41.87569 | 21.68664 | 5689 ft | 231 kts | 150° |
| 2026-05-05 12:44 | 41.86178 | 21.69742 | 5478 ft | 228 kts | 150° |
| 2026-05-05 12:44 | 41.84826 | 21.70781 | 5349 ft | 221 kts | 150° |
| 2026-05-05 12:45 | 41.83511 | 21.71784 | 5221 ft | 214 kts | 150° |
| 2026-05-05 12:45 | 41.82227 | 21.72760 | 5043 ft | 211 kts | 150° |
| 2026-05-05 12:45 | 41.80953 | 21.73726 | 4822 ft | 210 kts | 150° |
| 2026-05-05 12:45 | 41.79683 | 21.74684 | 4593 ft | 209 kts | 150° |
| 2026-05-05 12:46 | 41.78414 | 21.75635 | 4370 ft | 209 kts | 150° |
| 2026-05-05 12:46 | 41.77061 | 21.76279 | 4131 ft | 208 kts | 177° |
| 2026-05-05 12:46 | 41.75646 | 21.75998 | 3901 ft | 207 kts | 202° |
| 2026-05-05 12:46 | 41.74502 | 21.74858 | 3806 ft | 208 kts | 234° |
| 2026-05-05 12:47 | 41.73950 | 21.73088 | 3802 ft | 209 kts | 264° |
| 2026-05-05 12:47 | 41.74154 | 21.71188 | 3795 ft | 209 kts | 296° |
| 2026-05-05 12:47 | 41.75064 | 21.69707 | 3800 ft | 208 kts | 327° |
| 2026-05-05 12:47 | 41.76375 | 21.68916 | 3806 ft | 208 kts | 345° |
| 2026-05-05 12:48 | 41.77770 | 21.68464 | 3813 ft | 201 kts | 348° |
| 2026-05-05 12:48 | 41.79084 | 21.68060 | 3801 ft | 189 kts | 347° |
| 2026-05-05 12:48 | 41.80342 | 21.67638 | 3787 ft | 184 kts | 346° |
| 2026-05-05 12:48 | 41.81581 | 21.67209 | 3693 ft | 183 kts | 346° |
| 2026-05-05 12:49 | 41.82812 | 21.66781 | 3469 ft | 183 kts | 346° |
| 2026-05-05 12:49 | 41.84038 | 21.66356 | 3212 ft | 181 kts | 346° |
| 2026-05-05 12:49 | 41.85253 | 21.65934 | 2947 ft | 180 kts | 347° |
| 2026-05-05 12:49 | 41.86440 | 21.65522 | 2702 ft | 172 kts | 347° |
| 2026-05-05 12:50 | 41.87564 | 21.65131 | 2471 ft | 162 kts | 347° |
| 2026-05-05 12:50 | 41.88614 | 21.64766 | 2235 ft | 151 kts | 347° |
| 2026-05-05 12:50 | 41.89599 | 21.64424 | 2013 ft | 144 kts | 346° |
| 2026-05-05 12:50 | 41.90559 | 21.64091 | 1808 ft | 141 kts | 347° |
| 2026-05-05 12:51 | 41.91508 | 21.63763 | 1601 ft | 141 kts | 346° |
| 2026-05-05 12:51 | 41.92468 | 21.63434 | 1413 ft | 143 kts | 346° |
| 2026-05-05 12:51 | 41.93441 | 21.63093 | 1207 ft | 146 kts | 346° |
| 2026-05-05 12:51 | 41.94428 | 21.62753 | 961 ft | 147 kts | 345° |
| 2026-05-05 12:52 | 41.95400 | 21.62410 | 790 ft | 139 kts | 345° |
| 2026-05-05 12:52 | 41.96214 | 21.62126 | 789 ft | 98 kts | 345° |
| 2026-05-05 12:52 | 41.96719 | 21.61951 | 791 ft | 55 kts | 345° |
| 2026-05-05 12:52 | 41.96950 | 21.61871 | 789 ft | 16 kts | 349° |
| 2026-05-05 12:53 | 41.96997 | 21.61957 | 790 ft | 15 kts | 116° |
| 2026-05-05 12:53 | 41.96929 | 21.62069 | 792 ft | 16 kts | 128° |
| 2026-05-05 12:53 | 41.96846 | 21.62169 | 794 ft | 17 kts | 161° |
| 2026-05-05 12:53 | 41.96723 | 21.62212 | 793 ft | 20 kts | 165° |
| 2026-05-05 12:54 | 41.96425 | 21.62317 | 792 ft | 23 kts | 165° |
| 2026-05-05 12:54 | 41.96296 | 21.62362 | 792 ft | 20 kts | 165° |
| 2026-05-05 12:54 | 41.96163 | 21.62410 | 791 ft | 15 kts | 165° |
| 2026-05-05 12:55 | 41.96125 | 21.62464 | 793 ft | 7 kts | 85° |
| 2026-05-05 12:55 | 41.96111 | 21.62505 | 793 ft | 4 kts | 141° |
| 2026-05-05 12:55 | 41.96087 | 21.62517 | 793 ft | 3 kts | 162° |
| 2026-05-05 12:55 | 41.96069 | 21.62525 | 793 ft | 2 kts | 164° |
| 2026-05-05 12:56 | 41.96056 | 21.62530 | 793 ft | 2 kts | 165° |
| 2026-05-05 12:56 | 41.96046 | 21.62533 | 793 ft | 1 kts | 165° |
| 2026-05-05 12:56 | 41.96041 | 21.62535 | 793 ft | 1 kts | 166° |
| 2026-05-05 12:56 | 41.96019 | 21.62542 | 793 ft | 7 kts | 166° |
| 2026-05-05 12:57 | 41.95990 | 21.62582 | 793 ft | 6 kts | 91° |
| 2026-05-05 12:57 | 41.95995 | 21.62616 | 793 ft | 0 kts | 76° |